Time;durP1;ratioP1;P1;durP2;ratioP2;P2;SDS_P1;SDS_P2;PMS_P1;PMS_P2;Temp;Humidity;BMP_temperature;BMP_pressure;BME280_temperature;BME280_humidity;BME280_pressure;Samples;Min_cycle;Max_cycle;Signal;HPM_P1;HPM_P2
2022/08/23 00:01:29;;;;;;;62.72;59.38;;;;;;;26.15;40.31;101265.72;5055720;28;20041;-72
2022/08/23 00:03:58;;;;;;;61.38;57.75;;;;;;;26.13;40.26;101256.94;5055729;28;20033;-78
2022/08/23 00:06:23;;;;;;;;;;;;;;;26.10;40.43;101260.38;5055708;28;20385;-76
2022/08/23 00:08:51;;;;;;;60.65;57.33;;;;;;;26.05;40.20;101247.53;5056255;28;19908;-77
2022/08/23 00:11:44;;;;;;;60.88;57.50;;;;;;;26.04;40.38;101250.66;5055623;28;20029;-76
2022/08/23 00:14:20;;;;;;;60.08;56.67;;;;;;;26.00;40.11;101256.03;5053029;28;20396;-75
2022/08/23 00:16:46;;;;;;;60.00;56.95;;;;;;;25.98;40.37;101263.06;5055890;28;20074;-76
2022/08/23 00:19:15;;;;;;;62.05;58.67;;;;;;;25.96;40.42;101257.06;5055489;28;20120;-77
2022/08/23 00:21:42;;;;;;;59.17;56.10;;;;;;;25.93;40.40;101250.25;5055878;28;20029;-76
2022/08/23 00:24:10;;;;;;;64.50;61.00;;;;;;;25.90;40.38;101237.88;5055626;28;20098;-76
2022/08/23 00:26:52;;;;;;;64.63;61.35;;;;;;;25.89;40.54;101243.75;5055514;28;20053;-76
2022/08/23 00:29:18;;;;;;;64.63;61.33;;;;;;;25.86;40.83;101239.69;5055324;28;20469;-78
2022/08/23 00:31:44;;;;;;;61.30;57.78;;;;;;;25.83;40.90;101243.09;5055865;28;20080;-77
2022/08/23 00:34:10;;;;;;;64.68;61.47;;;;;;;25.82;40.82;101248.94;5055955;28;20068;-77
2022/08/23 00:36:35;;;;;;;59.60;56.47;;;;;;;25.80;40.47;101249.28;5055220;28;20036;-77
2022/08/23 00:39:01;;;;;;;60.70;57.53;;;;;;;25.78;40.76;101242.44;5055152;28;20029;-77
2022/08/23 00:41:27;;;;;;;64.07;60.70;;;;;;;25.74;40.80;101242.31;5055118;28;20037;-77
2022/08/23 00:47:38;;;;;;;63.53;60.22;;;;;;;25.69;40.99;101235.00;5055471;28;20095;-75
2022/08/23 00:49:53;;;;;;;62.05;58.65;;;;;;;25.66;40.63;101243.19;5055300;28;20115;-76
2022/08/23 00:52:35;;;;;;;61.85;58.75;;;;;;;25.64;41.08;101253.75;5055228;28;20028;-78
2022/08/23 00:55:01;;;;;;;63.05;59.28;;;;;;;25.61;40.95;101254.44;5054889;28;20109;-76
2022/08/23 00:57:27;;;;;;;61.88;58.47;;;;;;;25.59;40.84;101265.81;5054739;28;20060;-77
2022/08/23 00:59:53;;;;;;;62.08;58.72;;;;;;;25.57;41.00;101264.53;5054821;28;20048;-77
2022/08/23 01:02:18;;;;;;;60.17;56.50;;;;;;;25.55;40.71;101269.56;5054430;28;20041;-78
2022/08/23 01:04:51;;;;;;;63.50;60.17;;;;;;;25.53;40.69;101263.56;5054412;28;20040;-75
2022/08/23 01:07:41;;;;;;;65.18;61.80;;;;;;;25.51;41.03;101263.09;5055194;28;20029;-76
2022/08/23 01:10:15;;;;;;;64.03;60.70;;;;;;;25.48;40.88;101270.13;5054535;28;20060;-76
2022/08/23 01:12:46;;;;;;;63.88;60.17;;;;;;;25.45;41.12;101263.28;5054771;28;20021;-77
2022/08/23 01:15:31;;;;;;;64.07;59.90;;;;;;;25.43;40.82;101267.53;5054490;28;20060;-77
2022/08/23 01:18:19;;;;;;;62.10;58.90;;;;;;;25.40;41.04;101271.75;5055208;28;20033;-77
2022/08/23 01:20:49;;;;;;;63.17;59.83;;;;;;;25.37;40.96;101269.63;5053344;28;20032;-76
2022/08/23 01:23:40;;;;;;;62.08;58.72;;;;;;;25.36;41.25;101270.78;5054341;28;20029;-75
2022/08/23 01:26:07;;;;;;;61.28;57.85;;;;;;;25.33;40.97;101268.69;5054031;28;20033;-76
2022/08/23 01:28:34;;;;;;;63.08;59.53;;;;;;;25.31;40.93;101268.22;5054122;28;20037;-76
2022/08/23 01:31:00;;;;;;;65.22;61.22;;;;;;;25.29;40.71;101261.38;5052083;28;20068;-75
2022/08/23 01:33:26;;;;;;;59.28;56.10;;;;;;;25.28;40.99;101270.84;5053815;28;20029;-77
2022/08/23 01:35:55;;;;;;;59.05;55.80;;;;;;;25.26;41.02;101260.09;5052836;28;20039;-76
2022/08/23 01:38:25;;;;;;;59.97;56.80;;;;;;;25.23;40.73;101269.84;5052683;28;20067;-76
2022/08/23 01:40:50;;;;;;;60.45;57.33;;;;;;;25.22;41.22;101264.66;5054556;28;20021;-77
2022/08/23 01:43:20;;;;;;;65.72;62.20;;;;;;;25.19;41.24;101268.88;5053736;28;20029;-77
2022/08/23 01:45:47;;;;;;;61.10;57.45;;;;;;;25.19;40.78;101266.13;5053854;28;20465;-76
2022/08/23 01:48:13;;;;;;;60.20;56.97;;;;;;;25.16;41.26;101272.31;5053880;28;20056;-75
2022/08/23 01:50:38;;;;;;;59.17;55.97;;;;;;;25.16;40.93;101265.94;5053819;28;20040;-77
2022/08/23 01:53:04;;;;;;;63.78;60.22;;;;;;;25.13;41.41;101267.41;5053841;28;20461;-76
2022/08/23 01:55:30;;;;;;;60.58;57.22;;;;;;;25.12;41.44;101265.78;5053833;28;20029;-76
2022/08/23 01:57:58;;;;;;;60.85;57.60;;;;;;;25.09;41.35;101262.88;5053466;28;20378;-78
2022/08/23 02:00:29;;;;;;;56.70;53.38;;;;;;;25.08;40.86;101258.50;5052727;28;20116;-76
2022/08/23 02:02:55;;;;;;;60.13;56.97;;;;;;;25.05;40.99;101257.19;5053929;28;20082;-76
2022/08/23 02:05:21;;;;;;;59.60;55.42;;;;;;;25.03;41.04;101262.22;5053592;28;20037;-76
2022/08/23 02:07:47;;;;;;;60.33;57.13;;;;;;;25.02;41.08;101260.59;5054298;28;20084;-76
2022/08/23 02:10:13;;;;;;;57.72;54.63;;;;;;;25.01;41.11;101256.22;5052794;28;20033;-76
2022/08/23 02:12:39;;;;;;;57.95;54.83;;;;;;;24.98;41.52;101263.22;5052713;28;20080;-78
2022/08/23 02:15:05;;;;;;;58.40;54.78;;;;;;;24.97;41.62;101260.75;5053744;28;20116;-78
2022/08/23 02:17:30;;;;;;;56.65;53.38;;;;;;;24.95;41.33;101263.88;5053652;28;20033;-78
2022/08/23 02:19:56;;;;;;;56.70;53.03;;;;;;;24.93;41.25;101259.81;5053485;28;20037;-76
2022/08/23 02:22:21;;;;;;;57.88;54.75;;;;;;;24.91;41.52;101257.38;5054207;28;20090;-76
2022/08/23 02:24:47;;;;;;;56.92;53.80;;;;;;;24.90;41.34;101253.00;5053567;28;20025;-77
2022/08/23 02:27:14;;;;;;;56.15;52.92;;;;;;;24.88;41.60;101254.47;5053352;28;20028;-77
2022/08/23 02:29:43;;;;;;;59.80;56.55;;;;;;;24.86;41.74;101257.53;5053082;28;20526;-76
2022/08/23 02:32:09;;;;;;;57.17;53.40;;;;;;;24.84;41.54;101257.03;5053440;28;20025;-76
2022/08/23 02:34:35;;;;;;;57.50;54.30;;;;;;;24.82;41.21;101262.06;5052888;28;20452;-77
2022/08/23 02:37:01;;;;;;;58.55;55.38;;;;;;;24.80;41.73;101258.84;5053325;28;20115;-77
2022/08/23 02:39:27;;;;;;;59.10;55.50;;;;;;;24.80;41.66;101250.56;5053824;28;20036;-77
2022/08/23 02:41:53;;;;;;;56.78;53.58;;;;;;;24.77;41.83;101259.50;5054223;28;20025;-78
2022/08/23 02:44:19;;;;;;;56.65;53.20;;;;;;;24.75;41.73;101262.59;5057120;28;20471;-77
2022/08/23 02:46:45;;;;;;;57.67;54.63;;;;;;;24.74;41.69;101263.72;5057266;28;20477;-77
2022/08/23 02:49:11;;;;;;;58.60;54.97;;;;;;;24.71;41.67;101264.38;5057031;28;20059;-76
2022/08/23 02:51:37;;;;;;;58.72;55.42;;;;;;;24.70;41.90;101262.75;5057158;28;20032;-76
2022/08/23 02:54:04;;;;;;;57.10;54.10;;;;;;;24.69;41.66;101268.59;5056761;28;20060;-77
2022/08/23 02:56:30;;;;;;;57.53;54.53;;;;;;;24.68;42.01;101269.75;5057354;28;20103;-80
2022/08/23 02:58:55;;;;;;;56.78;53.42;;;;;;;24.65;41.98;101279.50;5055467;28;20465;-78
2022/08/23 03:01:25;;;;;;;57.35;53.63;;;;;;;24.65;42.40;101273.16;5057033;28;20119;-77
2022/08/23 03:03:51;;;;;;;58.45;54.60;;;;;;;24.63;42.22;101272.69;5072553;28;20476;-76
2022/08/23 03:06:17;;;;;;;58.20;54.55;;;;;;;24.61;41.78;101276.56;5056624;28;20045;-77
2022/08/23 03:08:43;;;;;;;56.30;52.75;;;;;;;24.60;41.89;101276.91;5056545;28;20108;-77
2022/08/23 03:11:12;;;;;;;55.25;52.30;;;;;;;24.58;42.38;101268.13;5056979;28;20056;-78
2022/08/23 03:13:38;;;;;;;56.33;53.28;;;;;;;24.56;42.40;101268.44;5056692;28;20108;-78
2022/08/23 03:16:04;;;;;;;58.65;55.30;;;;;;;24.55;42.44;101271.53;5056221;28;20433;-78
2022/08/23 03:18:29;;;;;;;59.30;55.67;;;;;;;24.54;42.39;101272.66;5055941;28;20083;-77
2022/08/23 03:20:55;;;;;;;55.75;52.58;;;;;;;24.52;41.90;101269.41;5056907;28;20025;-78
2022/08/23 03:23:20;;;;;;;56.25;53.03;;;;;;;24.51;41.88;101274.13;5056759;28;20041;-78
2022/08/23 03:25:46;;;;;;;58.00;54.67;;;;;;;24.50;42.23;101275.28;5056519;28;20037;-77
2022/08/23 03:28:11;;;;;;;56.75;53.35;;;;;;;24.48;42.45;101269.25;5057007;28;20037;-77
2022/08/23 03:30:36;;;;;;;58.17;55.00;;;;;;;24.47;42.36;101277.84;5056385;28;20385;-76
2022/08/23 03:33:02;;;;;;;54.92;51.55;;;;;;;24.46;42.52;101273.47;5056476;28;20025;-77
2022/08/23 03:35:28;;;;;;;56.63;53.70;;;;;;;24.43;42.33;101279.63;5056012;28;20499;-76
2022/08/23 03:37:54;;;;;;;56.13;53.05;;;;;;;24.42;42.21;101281.56;5056245;28;20033;-77
2022/08/23 03:40:21;;;;;;;54.03;51.10;;;;;;;24.41;42.23;101274.41;5056256;28;20028;-76
2022/08/23 03:42:47;;;;;;;59.78;56.22;;;;;;;24.39;42.70;101280.28;5055894;28;20036;-78
2022/08/23 03:45:13;;;;;;;54.83;51.67;;;;;;;24.37;42.37;101271.50;5056485;28;20036;-77
2022/08/23 03:47:38;;;;;;;55.58;52.25;;;;;;;24.36;42.67;101280.09;5056087;28;20060;-78
2022/08/23 03:50:04;;;;;;;55.55;52.60;;;;;;;24.35;42.81;101279.28;5056087;28;20025;-77
2022/08/23 03:52:29;;;;;;;61.92;58.65;;;;;;;24.33;43.02;101273.25;5038390;28;20529;-77
2022/08/23 03:54:54;;;;;;;55.05;52.05;;;;;;;24.31;42.52;101281.06;5055907;28;20116;-77
2022/08/23 03:57:20;;;;;;;56.28;52.92;;;;;;;24.30;43.01;101273.91;5056002;28;20435;-76
2022/08/23 03:59:47;;;;;;;58.75;55.20;;;;;;;24.29;43.12;101275.06;5088403;28;20056;-77
2022/08/23 04:02:14;;;;;;;53.87;50.77;;;;;;;24.27;42.68;101277.34;5055845;28;20032;-76
2022/08/23 04:04:40;;;;;;;55.78;52.88;;;;;;;24.26;42.80;101281.22;5055772;28;20275;-77
2022/08/23 04:07:06;;;;;;;53.03;49.92;;;;;;;24.25;43.03;101278.78;5071498;28;20432;-77
2022/08/23 04:09:31;;;;;;;55.80;52.55;;;;;;;24.24;43.22;101274.38;5055768;28;20035;-76
2022/08/23 04:11:57;;;;;;;56.78;52.75;;;;;;;24.22;43.20;101283.00;5054171;28;20037;-77
2022/08/23 04:14:23;;;;;;;54.72;51.47;;;;;;;24.21;43.36;101286.06;5055870;28;20112;-77
2022/08/23 04:16:49;;;;;;;54.00;51.08;;;;;;;24.19;42.93;101295.50;5054691;28;20119;-75
2022/08/23 04:19:16;;;;;;;56.92;53.53;;;;;;;24.17;42.99;101289.47;5055663;28;20075;-76
2022/08/23 04:21:44;;;;;;;55.63;52.63;;;;;;;24.17;43.33;101299.72;5055235;28;20037;-77
2022/08/23 04:24:09;;;;;;;;;;;;;;;24.15;42.80;101296.47;5056207;28;20119;-77
2022/08/23 04:26:35;;;;;;;55.28;52.08;;;;;;;24.13;43.16;101294.00;5055499;28;19982;-79
2022/08/23 04:29:01;;;;;;;54.78;51.75;;;;;;;24.10;43.10;101291.91;5055726;28;20547;-76
2022/08/23 04:31:27;;;;;;;55.97;52.60;;;;;;;24.08;43.39;101294.16;5055541;28;20128;-77
2022/08/23 04:33:54;;;;;;;57.13;53.65;;;;;;;24.09;43.60;101300.50;5055608;28;20373;-77
2022/08/23 04:36:20;;;;;;;57.05;53.33;;;;;;;24.07;43.46;101298.06;5055533;28;20037;-77
2022/08/23 04:38:45;;;;;;;57.80;54.53;;;;;;;24.06;43.21;101303.91;5053861;28;20037;-76
2022/08/23 04:43:55;;;;;;;58.08;54.75;;;;;;;24.03;43.54;101305.34;5055277;28;20043;-77
2022/08/23 04:46:22;;;;;;;55.75;52.67;;;;;;;24.02;43.40;101312.00;5054037;28;20381;-77
2022/08/23 04:48:47;;;;;;;59.55;56.17;;;;;;;24.02;43.37;101311.22;5054946;28;20435;-76
2022/08/23 04:51:13;;;;;;;53.83;50.65;;;;;;;24.01;43.47;101320.59;5055344;28;20059;-75
2022/08/23 04:53:39;;;;;;;55.08;51.58;;;;;;;23.98;43.47;101322.06;5054957;28;20044;-76
2022/08/23 04:56:05;;;;;;;57.47;54.05;;;;;;;23.98;43.85;101324.81;5054446;28;20037;-77
2022/08/23 04:58:32;;;;;;;56.50;53.38;;;;;;;23.97;43.70;101325.97;5054808;28;20091;-78
2022/08/23 05:01:00;;;;;;;55.78;52.67;;;;;;;23.95;43.94;101315.22;5054762;28;20029;-79
2022/08/23 05:03:26;;;;;;;53.28;50.22;;;;;;;23.95;43.61;101319.94;5054278;28;20037;-77
2022/08/23 05:05:52;;;;;;;57.67;54.05;;;;;;;23.94;43.97;101321.91;5052445;28;20043;-76
2022/08/23 05:08:18;;;;;;;54.08;50.53;;;;;;;23.93;44.21;101319.44;5053323;28;20461;-77
2022/08/23 05:10:44;;;;;;;54.10;50.72;;;;;;;23.91;44.14;101319.78;5054533;28;20037;-78
2022/08/23 05:13:09;;;;;;;55.65;52.30;;;;;;;23.91;44.09;101325.28;5054406;28;20051;-76
2022/08/23 05:15:35;;;;;;;55.17;52.08;;;;;;;23.89;44.18;101326.72;5054295;28;20060;-77
2022/08/23 05:18:00;;;;;;;55.00;51.53;;;;;;;23.89;44.18;101327.56;5054641;28;20029;-77
2022/08/23 05:20:26;;;;;;;55.50;51.85;;;;;;;23.87;44.29;101331.75;5054372;28;20520;-79
2022/08/23 05:22:53;;;;;;;57.28;53.95;;;;;;;23.86;43.76;101336.44;5054327;28;20041;-78
2022/08/23 05:25:19;;;;;;;54.95;51.58;;;;;;;23.85;43.91;101342.28;5054656;28;20120;-77
2022/08/23 05:27:45;;;;;;;55.30;51.75;;;;;;;23.84;44.00;101338.72;5054513;28;20111;-78
2022/08/23 05:30:11;;;;;;;55.60;52.10;;;;;;;23.83;43.93;101342.59;5052817;28;20451;-76
2022/08/23 05:32:36;;;;;;;57.85;53.85;;;;;;;23.82;44.22;101351.22;5054606;28;20064;-78
2022/08/23 05:35:02;;;;;;;58.63;55.22;;;;;;;23.81;44.03;101344.88;5054579;28;20036;-78
2022/08/23 05:37:27;;;;;;;58.00;54.45;;;;;;;23.81;44.35;101350.38;5054352;28;20029;-78
2022/08/23 05:39:53;;;;;;;55.25;51.67;;;;;;;23.78;44.41;101353.78;5054301;28;20025;-79
2022/08/23 05:42:18;;;;;;;57.42;54.42;;;;;;;23.78;44.24;101359.28;5052811;28;20033;-77
2022/08/23 05:44:44;;;;;;;52.97;49.40;;;;;;;23.77;44.17;101363.19;5054006;28;20499;-78
2022/08/23 05:47:13;;;;;;;54.08;50.97;;;;;;;23.76;44.31;101367.06;5053888;28;20029;-80
2022/08/23 05:49:39;;;;;;;52.67;49.58;;;;;;;23.75;44.51;101368.22;5053882;28;20025;-79
2022/08/23 05:52:09;;;;;;;56.70;52.85;;;;;;;23.74;44.23;101364.66;5053707;28;20028;-77
2022/08/23 05:54:35;;;;;;;56.70;52.95;;;;;;;23.74;44.51;101369.34;5053467;28;20036;-78
2022/08/23 05:57:00;;;;;;;56.13;52.63;;;;;;;23.73;44.63;101364.94;5052491;28;20037;-77
2022/08/23 05:59:26;;;;;;;54.65;51.15;;;;;;;23.71;44.18;101362.50;5054556;28;20041;-77
2022/08/23 06:01:52;;;;;;;52.33;49.15;;;;;;;23.70;44.59;101360.84;5054246;28;20503;-78
2022/08/23 06:04:18;;;;;;;53.58;50.38;;;;;;;23.69;44.70;101362.00;5054361;28;20036;-78
2022/08/23 06:06:43;;;;;;;54.30;51.00;;;;;;;23.70;44.64;101363.59;5053707;28;20040;-77
2022/08/23 06:09:13;;;;;;;57.22;53.67;;;;;;;23.69;44.19;101363.94;5054054;28;20055;-77
2022/08/23 06:11:39;;;;;;;56.08;52.47;;;;;;;23.68;44.30;101367.81;5053675;28;20028;-78
2022/08/23 06:14:07;;;;;;;58.75;55.28;;;;;;;23.67;44.59;101369.75;5054160;28;20122;-78
2022/08/23 06:16:39;;;;;;;57.90;53.97;;;;;;;23.68;44.60;101367.81;5053425;28;20112;-79
2022/08/23 06:19:06;;;;;;;61.00;57.22;;;;;;;23.67;44.20;101360.69;5051712;28;20144;-78
2022/08/23 06:21:32;;;;;;;57.47;53.88;;;;;;;23.66;44.30;101368.16;5052871;28;20103;-77
2022/08/23 06:23:58;;;;;;;55.42;51.78;;;;;;;23.67;44.11;101371.72;5053236;28;20116;-79
2022/08/23 06:26:26;;;;;;;57.05;53.45;;;;;;;23.67;44.19;101374.47;5053261;28;20422;-77
2022/08/23 06:28:54;;;;;;;59.00;54.95;;;;;;;23.66;44.36;101370.91;5053495;28;20075;-78
2022/08/23 06:34:08;;;;;;;60.42;56.80;;;;;;;23.66;44.81;101367.31;5052866;28;20044;-77
2022/08/23 06:36:35;;;;;;;56.92;52.67;;;;;;;23.66;44.85;101370.91;5052960;28;20029;-76
2022/08/23 06:39:00;;;;;;;54.83;51.25;;;;;;;23.65;44.42;101369.25;5052859;28;20029;-77
2022/08/23 06:41:27;;;;;;;62.45;58.55;;;;;;;23.66;45.04;101362.63;5052923;28;20036;-76
2022/08/23 06:43:52;;;;;;;57.97;54.20;;;;;;;23.67;44.80;101368.97;5051591;28;20086;-75
2022/08/23 06:46:24;;;;;;;59.85;55.55;;;;;;;23.67;44.98;101367.00;5052360;28;20024;-77
2022/08/23 06:48:50;;;;;;;60.67;56.95;;;;;;;23.68;45.15;101368.63;5051509;28;20178;-76
2022/08/23 06:51:22;;;;;;;61.25;57.38;;;;;;;23.68;45.30;101363.09;5052790;28;20033;-76
2022/08/23 06:53:47;;;;;;;60.97;56.97;;;;;;;23.70;45.45;101362.81;5052170;28;20357;-75
2022/08/23 06:56:13;;;;;;;58.42;54.72;;;;;;;23.71;45.52;101367.19;5051192;28;20033;-75
2022/08/23 06:58:39;;;;;;;58.72;54.90;;;;;;;23.72;45.34;101366.91;5051765;28;20115;-78
2022/08/23 07:01:44;;;;;;;61.03;57.22;;;;;;;23.74;45.37;101377.63;5051651;28;20037;-76
2022/08/23 07:04:11;;;;;;;60.70;56.65;;;;;;;23.75;45.76;101369.03;5052320;28;20025;-82
2022/08/23 07:06:37;;;;;;;58.92;55.25;;;;;;;23.78;45.74;101380.56;5052782;28;20033;-76
2022/08/23 07:09:04;;;;;;;61.80;57.60;;;;;;;23.80;45.99;101379.09;5052492;28;20086;-76
2022/08/23 07:11:30;;;;;;;65.05;61.15;;;;;;;23.83;45.66;101375.72;5068675;28;20033;-76
2022/08/23 07:13:58;;;;;;;61.45;57.05;;;;;;;23.86;46.06;101380.59;5052423;28;20044;-76
2022/08/23 07:16:24;;;;;;;64.22;59.80;;;;;;;23.89;45.65;101379.97;5052387;28;20029;-76
2022/08/23 07:18:51;;;;;;;62.45;57.97;;;;;;;23.93;46.07;101386.47;5052358;28;20369;-76
2022/08/23 07:21:18;;;;;;;62.58;58.38;;;;;;;23.97;45.93;101381.16;5051212;28;20041;-78
2022/08/23 07:23:44;;;;;;;65.53;60.85;;;;;;;24.01;46.16;101386.81;5052490;28;20036;-76
2022/08/23 07:26:12;;;;;;;65.22;60.50;;;;;;;24.04;46.07;101381.50;5052114;28;20111;-77
2022/08/23 07:28:38;;;;;;;63.22;59.13;;;;;;;24.08;45.67;101388.00;5054059;28;20033;-78
2022/08/23 07:31:18;;;;;;;65.53;60.92;;;;;;;24.11;45.84;101390.13;5055985;28;20053;-75
2022/08/23 07:33:44;;;;;;;63.17;59.05;;;;;;;24.15;45.94;101393.88;5055934;28;20091;-76
2022/08/23 07:36:13;;;;;;;62.75;58.70;;;;;;;24.20;45.96;101395.69;5055786;28;20033;-77
2022/08/23 07:38:39;;;;;;;65.43;60.80;;;;;;;24.24;45.91;101393.09;5055596;28;20568;-77
2022/08/23 07:41:04;;;;;;;63.90;59.47;;;;;;;24.26;46.45;101399.91;5054652;28;20140;-78
2022/08/23 07:43:32;;;;;;;66.50;61.88;;;;;;;24.30;46.43;101405.63;5055828;28;20029;-79
2022/08/23 07:45:57;;;;;;;64.38;60.00;;;;;;;24.32;46.02;101403.38;5055724;28;20025;-76
2022/08/23 07:48:23;;;;;;;65.88;61.08;;;;;;;24.35;46.62;101405.47;5055526;28;20039;-76
2022/08/23 07:50:58;;;;;;;64.88;60.75;;;;;;;24.38;46.40;101404.84;5054414;28;20110;-77
2022/08/23 07:53:24;;;;;;;68.85;63.67;;;;;;;24.43;46.49;101414.94;5054119;28;20039;-78
2022/08/23 07:55:50;;;;;;;65.35;60.75;;;;;;;24.47;46.62;101415.91;5055302;28;20072;-78
2022/08/23 07:58:16;;;;;;;70.85;66.20;;;;;;;24.51;46.51;101408.63;5055717;28;20025;-77
2022/08/23 08:00:42;;;;;;;67.25;62.70;;;;;;;24.55;46.38;101415.97;5055776;28;20082;-78
2022/08/23 08:03:08;;;;;;;68.78;64.07;;;;;;;24.61;46.64;101419.38;5055427;28;20115;-78
2022/08/23 08:05:35;;;;;;;67.13;62.35;;;;;;;24.67;46.17;101412.59;5054783;28;20076;-79
2022/08/23 08:08:01;;;;;;;65.38;61.10;;;;;;;24.73;46.35;101414.03;5055519;28;20086;-76
2022/08/23 08:10:27;;;;;;;66.60;62.20;;;;;;;24.78;46.73;101416.66;5054395;28;20373;-78
2022/08/23 08:12:52;;;;;;;66.25;61.50;;;;;;;24.84;46.50;101417.31;5055731;28;20025;-78
2022/08/23 08:15:19;;;;;;;65.00;60.83;;;;;;;24.91;46.35;101414.88;5055219;28;20037;-78
2022/08/23 08:17:47;;;;;;;65.05;61.00;;;;;;;24.98;46.57;101422.69;5055169;28;20036;-76
2022/08/23 08:20:14;;;;;;;65.38;61.35;;;;;;;25.04;46.32;101430.50;5054988;28;20102;-78
2022/08/23 08:22:40;;;;;;;66.55;62.30;;;;;;;25.12;45.69;101428.06;5055265;28;20083;-77
2022/08/23 08:25:07;;;;;;;66.40;61.88;;;;;;;25.20;46.03;101436.41;5054754;28;20031;-78
2022/08/23 08:27:33;;;;;;;63.20;59.47;;;;;;;25.28;46.01;101431.19;5054764;28;20040;-76
2022/08/23 08:29:58;;;;;;;66.28;62.25;;;;;;;25.34;45.66;101430.69;5055291;28;20025;-77
2022/08/23 08:32:24;;;;;;;63.53;59.90;;;;;;;25.42;45.23;101438.16;5053357;28;20036;-77
2022/08/23 08:34:49;;;;;;;63.80;59.63;;;;;;;25.50;45.34;101431.00;5053926;28;20491;-77
2022/08/23 08:37:15;;;;;;;65.90;61.50;;;;;;;25.59;45.33;101429.03;5055044;28;20040;-80
2022/08/23 08:39:44;;;;;;;66.55;62.53;;;;;;;25.67;45.11;101435.69;5053849;28;20033;-76
2022/08/23 08:42:37;;;;;;;65.22;61.58;;;;;;;25.76;44.80;101442.03;5053688;28;20040;-77
2022/08/23 08:45:10;;;;;;;64.60;61.00;;;;;;;25.84;44.91;101446.72;5055045;28;20032;-76
2022/08/23 08:47:49;;;;;;;64.28;60.67;;;;;;;25.93;44.56;101446.75;5053660;28;20040;-78
2022/08/23 08:50:23;;;;;;;63.92;60.38;;;;;;;26.02;44.75;101450.28;5054221;28;20462;-76
2022/08/23 08:53:00;;;;;;;65.72;62.00;;;;;;;26.10;44.80;101449.44;5054538;28;20040;-76
2022/08/23 08:55:37;;;;;;;65.13;61.33;;;;;;;26.21;44.32;101447.16;5053301;28;20108;-77
2022/08/23 08:58:05;;;;;;;67.80;64.03;;;;;;;26.29;44.30;101451.03;5054129;28;20068;-76
2022/08/23 09:00:35;;;;;;;65.60;62.08;;;;;;;26.38;43.73;101442.66;5054210;28;20037;-76
2022/08/23 09:03:09;;;;;;;63.97;60.60;;;;;;;26.46;43.75;101442.63;5054302;28;20099;-76
2022/08/23 09:05:38;;;;;;;66.03;62.65;;;;;;;26.54;43.67;101446.53;5054759;28;20036;-75
2022/08/23 09:08:34;;;;;;;65.82;62.22;;;;;;;26.63;43.55;101447.28;5054211;28;20061;-76
2022/08/23 09:11:24;;;;;;;68.70;65.10;;;;;;;26.72;43.72;101448.03;5054147;28;20032;-76
2022/08/23 09:14:14;;;;;;;67.95;63.88;;;;;;;26.81;43.74;101453.53;5054204;28;20041;-76
2022/08/23 09:17:03;;;;;;;67.93;64.43;;;;;;;26.88;43.58;101459.34;5053774;28;20036;-77
2022/08/23 09:19:33;;;;;;;67.97;64.63;;;;;;;26.96;43.25;101454.91;5045433;28;20036;-76
2022/08/23 09:22:04;;;;;;;69.72;65.97;;;;;;;27.03;43.29;101457.94;5054455;28;20103;-77
2022/08/23 09:24:29;;;;;;;71.05;67.25;;;;;;;27.10;43.49;101460.19;5053555;28;20063;-77
2022/08/23 09:26:55;;;;;;;71.55;67.47;;;;;;;27.18;43.51;101448.25;5054416;28;20022;-76
2022/08/23 09:29:26;;;;;;;71.65;67.45;;;;;;;27.23;43.53;101448.03;5052052;28;20037;-77
2022/08/23 09:31:57;;;;;;;71.10;67.40;;;;;;;27.31;43.18;101458.25;5054038;28;20489;-77
2022/08/23 09:34:47;;;;;;;71.03;67.43;;;;;;;27.38;43.05;101452.16;5053863;28;20060;-77
2022/08/23 09:37:21;;;;;;;68.65;65.18;;;;;;;27.44;43.19;101456.34;5053826;28;20108;-86
2022/08/23 09:39:50;;;;;;;70.60;66.57;;;;;;;27.50;43.08;101446.66;5053710;28;20031;-79
2022/08/23 09:42:35;;;;;;;71.47;67.75;;;;;;;27.58;42.62;101450.50;5054832;28;20533;-86
2022/08/23 09:45:04;;;;;;;70.57;66.80;;;;;;;27.63;43.03;101448.31;5055487;28;20083;-89
2022/08/23 09:47:39;;;;;;;69.07;65.63;;;;;;;27.70;42.52;101445.00;5054537;28;20032;-90
2022/08/23 09:50:37;;;;;;;71.72;67.50;;;;;;;27.78;42.38;101443.28;5054244;28;20402;-86
2022/08/23 09:53:09;;;;;;;75.22;70.95;;;;;;;27.83;42.23;101435.56;5055865;28;20025;-87
2022/08/23 09:55:39;;;;;;;73.88;70.20;;;;;;;27.89;42.48;101436.16;5053392;28;20032;-88
2022/08/23 09:58:45;;;;;;;69.18;65.78;;;;;;;27.96;42.17;101430.03;5054167;28;20025;-88
2022/08/23 10:01:19;;;;;;;72.15;68.65;;;;;;;28.01;42.19;101422.31;5054734;28;20033;-86
2022/08/23 10:03:45;;;;;;;69.10;65.70;;;;;;;28.07;42.53;101427.63;5055237;28;20029;-87
2022/08/23 10:06:15;;;;;;;69.72;66.22;;;;;;;28.12;42.10;101425.44;5054276;28;20021;-82
2022/08/23 10:08:52;;;;;;;72.72;68.78;;;;;;;28.20;41.60;101429.28;5054161;28;20041;-88
2022/08/23 10:11:25;;;;;;;74.47;70.57;;;;;;;28.24;41.98;101428.22;5053904;28;20029;-84
2022/08/23 10:13:51;;;;;;;72.45;68.68;;;;;;;28.29;41.78;101424.41;5058928;28;20456;-81
2022/08/23 10:16:29;;;;;;;73.55;69.57;;;;;;;28.34;42.04;101426.94;5058356;28;20484;-89
2022/08/23 10:18:57;;;;;;;73.85;70.25;;;;;;;28.40;42.01;101428.34;5055338;28;20029;-86
2022/08/23 10:21:26;;;;;;;75.25;71.65;;;;;;;28.45;41.46;101428.16;5052675;28;20056;-84
2022/08/23 10:24:07;;;;;;;70.70;67.30;;;;;;;28.50;41.55;101418.78;5052738;28;20049;-84
2022/08/23 10:26:34;;;;;;;74.00;70.35;;;;;;;28.55;41.65;101421.31;5052246;28;20439;-82
2022/08/23 10:29:36;;;;;;;74.90;71.25;;;;;;;28.60;41.17;101425.81;5053096;28;20045;-83
2022/08/23 10:32:17;;;;;;;77.18;73.32;;;;;;;28.66;41.74;101416.09;5051497;28;20045;-82
2022/08/23 10:34:54;;;;;;;75.82;71.53;;;;;;;28.69;41.81;101423.72;5053850;28;20086;-83
2022/08/23 10:37:26;;;;;;;73.45;69.95;;;;;;;28.75;41.70;101427.06;5052391;28;20392;-84
2022/08/23 10:39:54;;;;;;;73.82;70.32;;;;;;;28.80;41.13;101419.28;5051856;28;20037;-83
2022/08/23 10:42:46;;;;;;;75.43;71.93;;;;;;;28.84;40.77;101414.66;5052469;28;20025;-83
2022/08/23 10:45:24;;;;;;;77.50;73.63;;;;;;;28.89;40.90;101414.41;5024296;28;20052;-83
2022/08/23 10:47:49;;;;;;;76.30;72.63;;;;;;;28.92;40.71;101413.69;5053378;28;20029;-82
2022/08/23 10:50:19;;;;;;;79.55;75.55;;;;;;;28.96;40.41;101413.81;5052375;28;20461;-84
2022/08/23 10:53:07;;;;;;;77.63;73.97;;;;;;;29.02;40.28;101411.59;5053080;28;20033;-81
2022/08/23 10:55:53;;;;;;;74.30;70.60;;;;;;;29.05;41.16;101406.16;5052807;28;20036;-84
2022/08/23 10:58:23;;;;;;;76.25;72.65;;;;;;;29.09;40.67;101409.88;5052632;28;20087;-85
2022/08/23 11:00:50;;;;;;;79.72;76.13;;;;;;;29.14;40.63;101411.59;5053171;28;20083;-84
2022/08/23 11:03:24;;;;;;;75.22;71.35;;;;;;;29.17;40.22;101408.09;5053853;28;20060;-83
2022/08/23 11:06:24;;;;;;;74.93;71.47;;;;;;;29.22;40.00;101410.63;5056889;28;20071;-87
2022/08/23 11:08:59;;;;;;;80.63;76.53;;;;;;;29.24;40.63;101402.75;5056612;28;20110;-84
2022/08/23 11:11:40;;;;;;;81.47;77.65;;;;;;;29.28;39.96;101400.88;5057174;28;20032;-84
2022/08/23 11:14:24;;;;;;;78.20;74.60;;;;;;;29.31;39.66;101399.34;5056774;28;20033;-85
2022/08/23 11:16:57;;;;;;;79.22;75.53;;;;;;;29.36;40.63;101406.63;5055641;28;20029;-85
2022/08/23 11:19:47;;;;;;;79.30;75.70;;;;;;;29.39;40.63;101400.38;5056737;28;20060;-82
2022/08/23 11:22:33;;;;;;;80.38;76.68;;;;;;;29.44;40.67;101405.66;5056253;28;20104;-85
2022/08/23 11:25:24;;;;;;;81.88;77.88;;;;;;;29.47;40.04;101405.75;5056451;28;20053;-84
2022/08/23 11:28:24;;;;;;;76.50;72.93;;;;;;;29.51;40.30;101411.44;5055252;28;20037;-83
2022/08/23 11:30:56;;;;;;;77.75;74.05;;;;;;;29.53;39.95;101407.13;5056180;28;20045;-84